Time;durP1;ratioP1;P1;durP2;ratioP2;P2;SDS_P1;SDS_P2;PMS_P1;PMS_P2;Temp;Humidity;BMP_temperature;BMP_pressure;BME280_temperature;BME280_humidity;BME280_pressure;Samples;Min_cycle;Max_cycle;Signal;HPM_P1;HPM_P2
2023/02/18 00:02:04;;;;;;;27.33;14.60;;;;;;;10.48;100.00;101812.88;5035126;28;20394;-55
2023/02/18 00:04:31;;;;;;;22.48;13.23;;;;;;;10.44;100.00;101801.66;5034199;28;20095;-55
2023/02/18 00:06:58;;;;;;;24.45;13.73;;;;;;;10.56;100.00;101803.28;5035252;28;20048;-55
2023/02/18 00:09:25;;;;;;;24.63;14.52;;;;;;;10.43;100.00;101807.91;5025652;28;20508;-55
2023/02/18 00:11:52;;;;;;;22.85;13.65;;;;;;;10.46;100.00;101810.34;5050923;28;20076;-54
2023/02/18 00:14:19;;;;;;;25.05;12.90;;;;;;;10.43;100.00;101804.44;5035378;28;20057;-54
2023/02/18 00:16:46;;;;;;;23.50;13.15;;;;;;;10.46;100.00;101793.53;5035041;28;20054;-54
2023/02/18 00:19:17;;;;;;;23.92;13.82;;;;;;;10.52;100.00;101793.88;5034881;28;20072;-54
2023/02/18 00:21:44;;;;;;;23.90;13.13;;;;;;;10.54;100.00;101791.94;5035251;28;20052;-55
2023/02/18 00:24:14;;;;;;;23.83;14.77;;;;;;;10.38;100.00;101791.53;5034664;28;20077;-55
2023/02/18 00:26:41;;;;;;;26.95;13.90;;;;;;;10.38;100.00;101789.72;5035079;28;20107;-54
2023/02/18 00:29:08;;;;;;;25.75;13.98;;;;;;;10.47;100.00;101774.84;5034671;28;20049;-55
2023/02/18 00:31:36;;;;;;;26.00;13.70;;;;;;;10.45;100.00;101766.19;5034596;28;20038;-55
2023/02/18 00:34:04;;;;;;;27.08;14.70;;;;;;;10.40;100.00;101770.19;5034648;28;20076;-55
2023/02/18 00:36:31;;;;;;;23.30;13.73;;;;;;;10.45;100.00;101766.19;5034888;28;20104;-54
2023/02/18 00:39:00;;;;;;;26.15;14.02;;;;;;;10.44;100.00;101768.97;5034983;28;20065;-55
2023/02/18 00:41:28;;;;;;;23.73;14.85;;;;;;;10.37;100.00;101758.88;5034820;28;20061;-55
2023/02/18 00:43:55;;;;;;;29.38;16.10;;;;;;;10.44;100.00;101764.53;5034664;28;20048;-54
2023/02/18 00:46:23;;;;;;;24.50;13.85;;;;;;;10.40;100.00;101764.88;5033362;28;20050;-55
2023/02/18 00:48:52;;;;;;;24.70;13.30;;;;;;;10.44;100.00;101766.31;5034848;28;20052;-55
2023/02/18 00:51:19;;;;;;;25.10;14.02;;;;;;;10.46;100.00;101759.94;5033196;28;20399;-54
2023/02/18 00:53:47;;;;;;;26.25;14.52;;;;;;;10.42;100.00;101765.59;5034436;28;20042;-55
2023/02/18 00:56:14;;;;;;;24.15;13.38;;;;;;;10.30;100.00;101754.19;5034515;28;20068;-55
2023/02/18 00:58:42;;;;;;;27.85;15.48;;;;;;;10.34;100.00;101761.78;5034073;28;20053;-55
2023/02/18 01:01:09;;;;;;;26.98;14.95;;;;;;;10.43;100.00;101751.38;5033717;28;20095;-55
2023/02/18 01:03:38;;;;;;;26.45;15.15;;;;;;;10.34;100.00;101745.03;5033754;28;20099;-55
2023/02/18 01:06:06;;;;;;;23.65;13.68;;;;;;;10.36;100.00;101743.91;5033679;28;20045;-55
2023/02/18 01:08:35;;;;;;;26.85;15.00;;;;;;;10.42;100.00;101744.38;5033653;28;20045;-54
2023/02/18 01:11:03;;;;;;;29.65;15.60;;;;;;;10.32;100.00;101745.16;5032644;28;20037;-55
2023/02/18 01:13:30;;;;;;;28.27;14.93;;;;;;;10.34;100.00;101735.25;5034235;28;20049;-56
2023/02/18 01:15:58;;;;;;;27.48;13.60;;;;;;;10.40;100.00;101730.41;5033822;28;20044;-55
2023/02/18 01:18:25;;;;;;;26.10;14.48;;;;;;;10.42;100.00;101729.28;5033729;28;20065;-55
2023/02/18 01:20:52;;;;;;;24.35;13.80;;;;;;;10.37;100.00;101732.34;5033711;28;20045;-55
2023/02/18 01:23:19;;;;;;;22.05;12.43;;;;;;;10.33;100.00;101744.19;5033456;28;20487;-55
2023/02/18 01:25:47;;;;;;;24.85;14.70;;;;;;;10.26;100.00;101732.38;5032594;28;20045;-54
2023/02/18 01:28:14;;;;;;;24.60;13.25;;;;;;;10.29;100.00;101742.72;5033909;28;20045;-55
2023/02/18 01:30:42;;;;;;;24.55;14.15;;;;;;;10.33;100.00;101736.25;5033542;28;20045;-55
2023/02/18 01:33:10;;;;;;;25.58;14.75;;;;;;;10.27;100.00;101733.22;5032373;28;20072;-55
2023/02/18 01:35:39;;;;;;;25.08;13.48;;;;;;;10.33;100.00;101724.75;5034047;28;20183;-55
2023/02/18 01:38:07;;;;;;;26.08;13.02;;;;;;;10.37;100.00;101729.69;5033281;28;20491;-55
2023/02/18 01:40:34;;;;;;;27.10;13.35;;;;;;;10.38;100.00;101717.28;5033578;28;20133;-55
2023/02/18 01:43:01;;;;;;;24.90;13.48;;;;;;;10.40;100.00;101723.28;5032057;28;20037;-55
2023/02/18 01:46:02;;;;;;;23.92;12.55;;;;;;;10.40;100.00;101711.84;5049144;28;20153;-55
2023/02/18 01:48:36;;;;;;;24.27;13.02;;;;;;;10.39;100.00;101716.31;5033142;28;20050;-55
2023/02/18 01:51:28;;;;;;;24.00;12.77;;;;;;;10.35;100.00;101709.56;5033748;28;20050;-55
2023/02/18 01:54:01;;;;;;;22.75;12.52;;;;;;;10.32;100.00;101701.88;5033173;28;20042;-55
2023/02/18 01:56:34;;;;;;;22.35;13.00;;;;;;;10.38;100.00;101702.19;5015815;28;20060;-55
2023/02/18 01:59:08;;;;;;;23.33;12.07;;;;;;;10.34;100.00;101702.59;5033285;28;20049;-55
2023/02/18 02:01:35;;;;;;;22.58;11.88;;;;;;;10.33;100.00;101701.75;5032813;28;20052;-55
2023/02/18 02:04:02;;;;;;;23.63;12.15;;;;;;;10.33;100.00;101693.81;5033093;28;20073;-55
2023/02/18 02:06:30;;;;;;;21.33;11.52;;;;;;;10.24;100.00;101699.00;5033046;28;20045;-55
2023/02/18 02:09:01;;;;;;;23.73;11.98;;;;;;;10.34;100.00;101699.94;5033032;28;20052;-55
2023/02/18 02:11:38;;;;;;;;;;;;;;;10.33;100.00;101701.75;5012171;28;20099;-55
2023/02/18 02:17:02;;;;;;;19.65;10.93;;;;;;;10.23;100.00;101686.72;5110970;27;20387;-54
2023/02/18 02:20:10;;;;;;;22.48;11.25;;;;;;;10.21;100.00;101688.66;5111184;28;20404;-54
2023/02/18 02:23:17;;;;;;;22.45;11.55;;;;;;;10.30;100.00;101691.38;5090137;28;20044;-54
2023/02/18 02:26:10;;;;;;;20.85;10.88;;;;;;;10.22;100.00;101682.38;5090257;28;20036;-55
2023/02/18 02:29:09;;;;;;;21.05;10.27;;;;;;;10.27;100.00;101675.72;5090497;28;20090;-55
2023/02/18 02:32:04;;;;;;;19.08;9.85;;;;;;;10.08;100.00;101665.81;5090607;28;20044;-55
2023/02/18 02:37:51;;;;;;;22.27;11.43;;;;;;;9.88;100.00;101658.69;5110760;27;20380;-54
2023/02/18 02:40:29;;;;;;;22.92;11.10;;;;;;;9.99;100.00;101664.75;5110727;28;20079;-55
2023/02/18 02:43:17;;;;;;;21.38;10.90;;;;;;;9.96;100.00;101649.09;5111173;28;20093;-54
2023/02/18 02:45:57;;;;;;;23.73;11.65;;;;;;;9.89;100.00;101650.59;5110940;28;20050;-55
2023/02/18 02:48:46;;;;;;;23.77;11.75;;;;;;;9.92;100.00;101655.66;5110947;28;20249;-55
2023/02/18 02:51:22;;;;;;;24.63;12.75;;;;;;;9.92;100.00;101645.03;5110442;28;20048;-55
2023/02/18 02:53:48;;;;;;;25.58;12.27;;;;;;;9.94;100.00;101650.22;5110956;28;20542;-55
2023/02/18 02:56:20;;;;;;;28.25;12.77;;;;;;;9.88;100.00;101658.69;5110846;28;20096;-54
2023/02/18 02:59:07;;;;;;;25.60;12.88;;;;;;;9.89;100.00;101647.09;5110466;28;20123;-55
2023/02/18 03:04:46;;;;;;;25.70;12.98;;;;;;;9.92;100.00;101639.75;5110753;27;20082;-54
2023/02/18 03:07:43;;;;;;;25.63;13.00;;;;;;;9.90;100.00;101636.38;5111096;28;20327;-54
2023/02/18 03:10:49;;;;;;;22.27;12.13;;;;;;;10.05;100.00;101628.13;5110797;28;20048;-55
2023/02/18 03:13:32;;;;;;;22.63;11.73;;;;;;;10.03;100.00;101622.09;5110613;28;20038;-55
2023/02/18 03:16:38;;;;;;;24.33;12.60;;;;;;;10.06;100.00;101627.13;5109604;28;20411;-55
2023/02/18 03:19:30;;;;;;;28.67;12.60;;;;;;;10.04;100.00;101616.69;5110165;28;20505;-55
2023/02/18 03:22:05;;;;;;;21.75;11.20;;;;;;;10.05;100.00;101622.81;5110498;28;20059;-55
2023/02/18 03:24:38;;;;;;;23.52;11.00;;;;;;;10.13;100.00;101617.69;5109761;28;20449;-55
2023/02/18 03:27:30;;;;;;;22.25;10.32;;;;;;;10.09;100.00;101616.28;5111047;28;20120;-55
2023/02/18 03:30:09;;;;;;;21.52;9.68;;;;;;;10.06;100.00;101616.53;5110360;28;20052;-55
2023/02/18 03:32:36;;;;;;;19.50;8.70;;;;;;;10.04;100.00;101614.03;5110498;28;20044;-55
2023/02/18 03:35:10;;;;;;;19.73;9.38;;;;;;;10.05;100.00;101609.56;5110198;28;20036;-55
2023/02/18 03:37:44;;;;;;;19.85;9.65;;;;;;;9.90;100.00;101614.34;5110648;28;20051;-55
2023/02/18 03:40:11;;;;;;;21.25;8.98;;;;;;;9.97;100.00;101605.75;5110394;28;20040;-55
2023/02/18 03:42:38;;;;;;;20.50;9.85;;;;;;;9.90;100.00;101601.09;5110522;28;20105;-55
2023/02/18 03:45:06;;;;;;;19.88;9.48;;;;;;;9.82;100.00;101598.22;5110430;28;20079;-55
2023/02/18 03:47:33;;;;;;;19.95;9.65;;;;;;;9.81;100.00;101594.75;5110177;28;20048;-54
2023/02/18 03:49:59;;;;;;;19.80;9.90;;;;;;;9.85;100.00;101593.50;5110136;28;20055;-55
2023/02/18 03:52:26;;;;;;;18.73;9.75;;;;;;;9.80;100.00;101596.56;5110410;28;20481;-55
2023/02/18 03:54:54;;;;;;;21.77;10.45;;;;;;;9.82;100.00;101571.72;5110238;28;20048;-55
2023/02/18 03:57:20;;;;;;;21.77;10.18;;;;;;;9.79;100.00;101564.88;5110225;28;20109;-55
2023/02/18 03:59:47;;;;;;;17.80;9.45;;;;;;;9.85;100.00;101548.47;5109714;28;20113;-55
2023/02/18 04:02:13;;;;;;;19.27;9.50;;;;;;;9.89;100.00;101557.81;5109198;28;20052;-55
2023/02/18 04:04:40;;;;;;;17.27;8.18;;;;;;;9.74;100.00;101552.00;5108830;28;20489;-55
2023/02/18 04:07:07;;;;;;;17.33;8.88;;;;;;;9.70;100.00;101557.72;5108787;28;20047;-55
2023/02/18 04:09:34;;;;;;;14.35;7.45;;;;;;;9.77;100.00;101558.88;5109714;28;20048;-55
2023/02/18 04:12:00;;;;;;;15.13;7.43;;;;;;;9.70;100.00;101563.84;5105219;28;20061;-55
2023/02/18 04:14:28;;;;;;;12.77;6.57;;;;;;;9.70;100.00;101549.75;5102384;28;20043;-55
2023/02/18 04:16:55;;;;;;;12.77;6.75;;;;;;;9.66;100.00;101550.97;5093525;28;20382;-55
2023/02/18 04:19:22;;;;;;;13.93;6.40;;;;;;;9.65;100.00;101551.94;5096176;28;20497;-55
2023/02/18 04:21:48;;;;;;;11.70;5.97;;;;;;;9.72;100.00;101547.81;5095708;28;20447;-55
2023/02/18 04:24:16;;;;;;;12.55;6.20;;;;;;;9.68;100.00;101547.25;5096146;28;20040;-55
2023/02/18 04:26:42;;;;;;;15.10;5.82;;;;;;;9.60;100.00;101554.97;5096153;28;20056;-55
2023/02/18 04:29:09;;;;;;;11.75;5.28;;;;;;;9.69;100.00;101548.06;5096020;28;20447;-55
2023/02/18 04:31:36;;;;;;;11.13;5.90;;;;;;;9.71;100.00;101544.31;5094607;28;20047;-55
2023/02/18 04:34:03;;;;;;;11.18;5.72;;;;;;;9.73;100.00;101541.53;5094620;28;20048;-55
2023/02/18 04:36:29;;;;;;;11.13;5.28;;;;;;;9.71;100.00;101543.47;5095585;28;20093;-55
2023/02/18 04:38:56;;;;;;;12.52;4.88;;;;;;;9.67;100.00;101540.25;5095991;28;20044;-55
2023/02/18 04:41:23;;;;;;;12.82;4.72;;;;;;;9.74;100.00;101537.94;5095631;28;20371;-55
2023/02/18 04:43:50;;;;;;;12.20;4.53;;;;;;;9.68;100.00;101533.13;5095601;28;20452;-55
2023/02/18 04:46:16;;;;;;;12.63;4.72;;;;;;;9.70;100.00;101528.56;5095525;28;20048;-55
2023/02/18 04:48:43;;;;;;;9.98;4.30;;;;;;;9.65;100.00;101522.81;5095448;28;20056;-55
2023/02/18 04:51:10;;;;;;;10.07;4.15;;;;;;;9.57;100.00;101520.81;5095192;28;20050;-55
2023/02/18 04:53:36;;;;;;;8.48;3.67;;;;;;;9.67;100.00;101519.06;5095599;28;20486;-55
2023/02/18 04:56:03;;;;;;;10.43;3.65;;;;;;;9.56;100.00;101529.72;5095415;28;20043;-55
2023/02/18 04:58:30;;;;;;;9.65;4.10;;;;;;;9.49;100.00;101524.06;5095508;28;20056;-55
2023/02/18 05:00:59;;;;;;;8.25;4.03;;;;;;;9.52;100.00;101521.19;5094447;28;20066;-55
2023/02/18 05:03:27;;;;;;;8.68;3.80;;;;;;;9.57;100.00;101512.88;5094643;28;20044;-55
2023/02/18 05:05:54;;;;;;;13.13;4.05;;;;;;;9.53;100.00;101516.72;5095526;28;20066;-54
2023/02/18 05:08:21;;;;;;;8.93;3.50;;;;;;;9.46;100.00;101512.91;5095068;28;20113;-55
2023/02/18 05:10:48;;;;;;;9.57;3.63;;;;;;;9.45;100.00;101514.72;5094985;28;20489;-55
2023/02/18 05:13:15;;;;;;;8.88;3.90;;;;;;;9.50;100.00;101515.19;5095133;28;20036;-54
2023/02/18 05:15:42;;;;;;;9.43;3.88;;;;;;;9.54;100.00;101508.66;5095305;28;20040;-55
2023/02/18 05:18:08;;;;;;;11.48;4.22;;;;;;;9.44;100.00;101509.53;5095033;28;20503;-55
2023/02/18 05:20:35;;;;;;;9.07;4.03;;;;;;;9.40;100.00;101514.25;5095143;28;20051;-55
2023/02/18 05:23:02;;;;;;;9.95;4.43;;;;;;;9.45;100.00;101504.13;5093754;28;20044;-55
2023/02/18 05:25:29;;;;;;;11.48;4.88;;;;;;;9.40;100.00;101508.97;5094393;28;20546;-55
2023/02/18 05:27:56;;;;;;;11.77;4.88;;;;;;;9.38;100.00;101498.50;5094549;28;20052;-54
2023/02/18 05:30:23;;;;;;;11.40;5.32;;;;;;;9.39;100.00;101484.28;5094699;28;20040;-54
2023/02/18 05:32:49;;;;;;;11.15;4.88;;;;;;;9.37;100.00;101472.16;5093546;28;20044;-55
2023/02/18 05:35:16;;;;;;;11.10;5.53;;;;;;;9.37;100.00;101465.06;5094489;28;20184;-55
2023/02/18 05:37:42;;;;;;;11.02;5.03;;;;;;;9.40;100.00;101463.94;5093618;28;20048;-55
2023/02/18 05:40:10;;;;;;;12.30;5.45;;;;;;;9.38;100.00;101455.28;5094592;28;20051;-55
2023/02/18 05:42:36;;;;;;;11.10;5.32;;;;;;;9.43;100.00;101462.84;5093326;28;20043;-55
2023/02/18 05:45:03;;;;;;;10.85;4.88;;;;;;;9.37;100.00;101454.44;5094364;28;20097;-56
2023/02/18 05:47:30;;;;;;;11.40;5.30;;;;;;;9.46;100.00;101455.50;5093213;28;20044;-55
2023/02/18 05:49:57;;;;;;;10.98;5.15;;;;;;;9.36;100.00;101458.06;5094291;28;20051;-55
2023/02/18 05:52:23;;;;;;;11.35;5.68;;;;;;;9.46;100.00;101455.50;5093345;28;20233;-54
2023/02/18 05:54:50;;;;;;;12.07;5.47;;;;;;;9.38;100.00;101448.16;5094240;28;20048;-55
2023/02/18 05:57:16;;;;;;;13.00;5.97;;;;;;;9.33;100.00;101452.19;5094486;28;20052;-55
2023/02/18 05:59:43;;;;;;;12.85;5.82;;;;;;;9.37;100.00;101435.09;5093566;28;20048;-55
2023/02/18 06:02:10;;;;;;;13.85;5.63;;;;;;;9.35;100.00;101439.66;5093577;28;20051;-55
2023/02/18 06:04:38;;;;;;;13.20;6.28;;;;;;;9.23;100.00;101433.59;5092724;28;20046;-55
2023/02/18 06:07:05;;;;;;;12.98;6.20;;;;;;;9.34;100.00;101444.13;5092704;28;20040;-55
2023/02/18 06:09:32;;;;;;;12.77;5.90;;;;;;;9.35;100.00;101442.28;5092947;28;20051;-55
2023/02/18 06:11:58;;;;;;;13.38;6.47;;;;;;;9.39;100.00;101433.97;5088099;28;20054;-55
2023/02/18 06:14:25;;;;;;;11.75;5.55;;;;;;;9.41;100.00;101437.34;5093279;28;20113;-55
2023/02/18 06:16:52;;;;;;;15.02;6.32;;;;;;;9.54;100.00;101444.25;5093020;28;20045;-55
2023/02/18 06:19:19;;;;;;;16.95;6.07;;;;;;;9.45;100.00;101439.72;5092108;28;20450;-55
2023/02/18 06:21:46;;;;;;;14.00;5.40;;;;;;;9.53;100.00;101432.81;5093753;28;20105;-55
2023/02/18 06:24:12;;;;;;;13.00;5.45;;;;;;;9.58;100.00;101440.34;5093507;28;20397;-55
2023/02/18 06:26:39;;;;;;;11.88;5.72;;;;;;;9.47;100.00;101443.91;5093879;28;20047;-55
2023/02/18 06:29:06;;;;;;;11.07;5.30;;;;;;;9.43;100.00;101444.31;5093720;28;20044;-55
2023/02/18 06:31:32;;;;;;;11.68;5.38;;;;;;;9.52;100.00;101441.72;5093809;28;20040;-54
2023/02/18 06:33:59;;;;;;;11.65;5.38;;;;;;;9.50;100.00;101443.66;5093354;28;20562;-54
2023/02/18 06:36:26;;;;;;;10.00;5.28;;;;;;;9.60;100.00;101433.97;5093405;28;20473;-54
2023/02/18 06:38:56;;;;;;;10.07;4.90;;;;;;;9.64;100.00;101441.66;5093536;28;20067;-54
2023/02/18 06:41:22;;;;;;;10.93;4.75;;;;;;;9.63;100.00;101440.81;5093692;28;20444;-54
2023/02/18 06:43:49;;;;;;;9.57;4.90;;;;;;;9.61;100.00;101442.75;5092097;28;20047;-55
2023/02/18 06:46:16;;;;;;;9.65;4.85;;;;;;;9.61;100.00;101432.16;5092177;28;20048;-55
2023/02/18 06:48:43;;;;;;;9.48;4.50;;;;;;;9.65;100.00;101430.09;5092908;28;20035;-54
2023/02/18 06:51:09;;;;;;;12.98;4.57;;;;;;;9.72;100.00;101433.91;5093510;28;20511;-54
2023/02/18 06:53:36;;;;;;;9.82;4.30;;;;;;;9.59;100.00;101442.88;5091976;28;20032;-55
2023/02/18 06:56:03;;;;;;;8.57;4.07;;;;;;;9.74;100.00;101440.72;5093674;28;20051;-55
2023/02/18 06:58:30;;;;;;;9.30;4.00;;;;;;;9.71;100.00;101448.09;5091597;28;20447;-55
2023/02/18 07:00:57;;;;;;;9.27;4.25;;;;;;;9.73;100.00;101449.66;5092533;28;20048;-54
2023/02/18 07:03:23;;;;;;;8.70;4.10;;;;;;;9.76;100.00;101444.09;5092710;28;20063;-55
2023/02/18 07:05:50;;;;;;;9.32;4.15;;;;;;;9.73;100.00;101446.16;5087342;28;20041;-55
2023/02/18 07:08:17;;;;;;;8.15;3.75;;;;;;;9.71;100.00;101450.75;5086599;28;20041;-55
2023/02/18 07:10:44;;;;;;;11.85;4.30;;;;;;;9.79;100.00;101451.78;5087943;28;20040;-54
2023/02/18 07:13:11;;;;;;;8.98;4.13;;;;;;;9.85;100.00;101454.88;5072913;28;20078;-55
2023/02/18 07:15:37;;;;;;;11.93;4.55;;;;;;;9.80;100.00;101461.41;5072972;28;20044;-55
2023/02/18 07:18:05;;;;;;;6.88;3.35;;;;;;;9.84;100.00;101453.19;5072902;28;20094;-54
2023/02/18 07:20:32;;;;;;;8.38;4.00;;;;;;;9.89;100.00;101462.41;5080306;28;20046;-55
2023/02/18 07:22:59;;;;;;;8.93;3.85;;;;;;;9.83;100.00;101448.88;5093113;28;20052;-55
2023/02/18 07:25:25;;;;;;;7.93;3.80;;;;;;;9.85;100.00;101462.81;5093041;28;20059;-54
2023/02/18 07:27:53;;;;;;;8.73;4.10;;;;;;;9.85;100.00;101450.41;5091850;28;20043;-54
2023/02/18 07:30:20;;;;;;;9.63;4.05;;;;;;;9.88;100.00;101455.44;5091631;28;20397;-54
2023/02/18 07:32:47;;;;;;;9.55;3.58;;;;;;;9.79;100.00;101449.13;5093298;28;20048;-55
2023/02/18 07:35:14;;;;;;;8.52;3.85;;;;;;;9.72;100.00;101447.97;5093114;28;20516;-54
2023/02/18 07:37:46;;;;;;;10.30;4.57;;;;;;;9.75;100.00;101445.06;5093103;28;20040;-55
2023/02/18 07:40:15;;;;;;;9.48;4.22;;;;;;;9.70;100.00;101457.03;5091513;28;20123;-55
2023/02/18 07:42:42;;;;;;;8.98;4.13;;;;;;;9.66;100.00;101459.09;5093045;28;20056;-55
2023/02/18 07:45:09;;;;;;;8.30;3.92;;;;;;;9.71;100.00;101466.66;5092720;28;20035;-55
2023/02/18 07:47:36;;;;;;;8.57;3.50;;;;;;;9.65;100.00;101472.47;5092580;28;20040;-54
2023/02/18 07:50:04;;;;;;;9.00;3.88;;;;;;;9.65;100.00;101472.47;5094603;28;20397;-54
2023/02/18 07:52:32;;;;;;;7.75;3.67;;;;;;;9.65;100.00;101491.84;5096579;28;20054;-54
2023/02/18 07:54:58;;;;;;;7.95;3.83;;;;;;;9.69;100.00;101487.13;5096214;28;20459;-54
2023/02/18 07:57:25;;;;;;;8.68;3.72;;;;;;;9.73;100.00;101480.59;5096633;28;20048;-54
2023/02/18 07:59:52;;;;;;;7.93;3.25;;;;;;;9.82;100.00;101476.34;5094432;28;20409;-54
2023/02/18 08:02:21;;;;;;;6.55;2.90;;;;;;;9.73;100.00;101494.72;5095853;28;20105;-53
2023/02/18 08:04:48;;;;;;;8.05;3.10;;;;;;;9.65;100.00;101509.56;5096466;28;20040;-54
2023/02/18 08:07:16;;;;;;;9.82;2.72;;;;;;;9.69;100.00;101487.97;5096293;28;20447;-54
2023/02/18 08:09:43;;;;;;;7.00;2.72;;;;;;;9.64;100.00;101492.84;5096228;28;20051;-54
2023/02/18 08:12:10;;;;;;;7.38;2.80;;;;;;;9.64;100.00;101495.50;5093234;28;20052;-54
2023/02/18 08:14:36;;;;;;;7.68;2.90;;;;;;;9.48;100.00;101510.97;5080055;28;20044;-54
2023/02/18 08:17:04;;;;;;;8.63;2.42;;;;;;;9.42;100.00;101520.25;5074738;28;20043;-54
2023/02/18 08:19:31;;;;;;;9.80;2.83;;;;;;;9.22;100.00;101517.47;5075343;28;20040;-54
2023/02/18 08:22:00;;;;;;;8.88;2.83;;;;;;;9.13;100.00;101520.88;5094858;28;20051;-54
2023/02/18 08:24:27;;;;;;;11.48;3.20;;;;;;;9.06;100.00;101519.69;5095540;28;20062;-54
2023/02/18 08:26:54;;;;;;;10.75;3.03;;;;;;;9.09;100.00;101529.19;5096030;28;20130;-55
2023/02/18 08:29:27;;;;;;;9.85;2.90;;;;;;;9.06;100.00;101534.72;5095649;28;20397;-55
2023/02/18 08:31:56;;;;;;;16.17;3.25;;;;;;;9.07;100.00;101531.13;5095705;28;20109;-55
2023/02/18 08:34:23;;;;;;;9.90;3.00;;;;;;;8.96;100.00;101532.81;5095076;28;20442;-54
2023/02/18 08:36:50;;;;;;;11.65;3.00;;;;;;;9.11;100.00;101538.66;5095489;28;20401;-55
2023/02/18 08:39:16;;;;;;;14.15;3.08;;;;;;;8.88;100.00;101524.69;5095826;28;20048;-54
2023/02/18 08:41:44;;;;;;;11.10;2.80;;;;;;;8.87;100.00;101522.97;5095828;28;20068;-54
2023/02/18 08:44:11;;;;;;;16.95;3.05;;;;;;;8.81;100.00;101516.38;5095485;28;20138;-54
2023/02/18 08:46:37;;;;;;;12.60;3.10;;;;;;;8.90;100.00;101517.44;5095703;28;20563;-55
2023/02/18 08:49:04;;;;;;;11.65;2.97;;;;;;;8.96;100.00;101524.03;5095268;28;20097;-55
2023/02/18 08:51:31;;;;;;;13.70;3.45;;;;;;;9.03;100.00;101525.22;5095637;28;20044;-55
2023/02/18 08:53:58;;;;;;;11.52;3.38;;;;;;;9.06;100.00;101517.06;5095225;28;20048;-55
2023/02/18 08:56:24;;;;;;;12.65;2.97;;;;;;;9.15;100.00;101507.50;5095293;28;20494;-55
2023/02/18 08:58:51;;;;;;;14.23;3.17;;;;;;;9.16;100.00;101515.31;5095018;28;20075;-55
2023/02/18 09:01:18;;;;;;;17.00;3.50;;;;;;;9.11;100.00;101506.91;5094956;28;20374;-54
2023/02/18 09:03:44;;;;;;;13.68;3.40;;;;;;;9.22;100.00;101495.44;5094621;28;20044;-55
2023/02/18 09:06:11;;;;;;;14.63;3.33;;;;;;;9.22;100.00;101511.31;5094004;28;20052;-54
2023/02/18 09:08:38;;;;;;;15.80;3.00;;;;;;;9.30;100.00;101492.16;5094919;28;20134;-55
2023/02/18 09:11:04;;;;;;;13.60;3.88;;;;;;;9.30;100.00;101498.31;5095255;28;20051;-55
2023/02/18 09:13:32;;;;;;;11.38;3.20;;;;;;;9.36;100.00;101500.44;5094776;28;20397;-55
2023/02/18 09:16:05;;;;;;;18.52;3.47;;;;;;;9.48;99.47;101493.28;5095178;28;20508;-55
2023/02/18 09:18:34;;;;;;;14.88;3.17;;;;;;;9.45;99.92;101490.03;5094584;28;20043;-55
2023/02/18 09:21:06;;;;;;;17.52;3.63;;;;;;;9.51;98.70;101489.53;5094687;28;20044;-55
2023/02/18 09:23:34;;;;;;;30.00;4.13;;;;;;;9.52;97.67;101489.41;5094790;28;20497;-55
2023/02/18 09:26:04;;;;;;;18.77;3.20;;;;;;;9.64;99.21;101484.03;5094721;28;20040;-55
2023/02/18 09:28:32;;;;;;;15.23;3.80;;;;;;;9.55;97.56;101486.50;5093787;28;20048;-55
2023/02/18 09:31:04;;;;;;;19.70;3.85;;;;;;;9.61;98.31;101483.31;5094541;28;20080;-55
2023/02/18 09:33:35;;;;;;;18.65;3.35;;;;;;;9.59;97.99;101479.13;5094331;28;20401;-54
2023/02/18 09:36:02;;;;;;;15.65;3.40;;;;;;;9.53;98.19;101474.34;5093343;28;20040;-55
2023/02/18 09:38:29;;;;;;;16.90;3.55;;;;;;;9.64;97.34;101474.28;5094662;28;20098;-54
2023/02/18 09:40:58;;;;;;;12.50;3.03;;;;;;;9.57;97.37;101475.78;5094348;28;20044;-54
2023/02/18 09:43:35;;;;;;;15.10;3.28;;;;;;;9.55;96.64;101472.41;5094453;28;20074;-55
2023/02/18 09:46:09;;;;;;;16.50;3.85;;;;;;;9.57;96.89;101473.97;5093891;28;20396;-58
2023/02/18 09:48:36;;;;;;;15.50;3.35;;;;;;;9.60;96.32;101480.81;5094237;28;20051;-56
2023/02/18 09:51:03;;;;;;;12.70;3.03;;;;;;;9.55;95.95;101475.03;5093799;28;20490;-56
2023/02/18 09:53:31;;;;;;;15.25;3.60;;;;;;;9.59;96.59;101476.50;5094123;28;20032;-54
2023/02/18 09:55:59;;;;;;;13.00;3.45;;;;;;;9.53;96.27;101467.25;5094291;28;20048;-56
2023/02/18 09:58:30;;;;;;;19.15;3.60;;;;;;;9.69;96.10;101471.25;5093124;28;20489;-54
2023/02/18 10:01:29;;;;;;;15.07;3.70;;;;;;;9.64;95.96;101466.34;5093159;28;20493;-55
2023/02/18 10:04:03;;;;;;;18.80;3.72;;;;;;;9.68;95.26;101456.31;5092998;28;20472;-56
2023/02/18 10:06:34;;;;;;;12.88;3.40;;;;;;;9.69;95.15;101452.69;5093339;28;20515;-55
2023/02/18 10:09:05;;;;;;;16.70;3.88;;;;;;;9.70;95.69;101463.16;5093995;28;20463;-55
2023/02/18 10:11:36;;;;;;;10.77;2.93;;;;;;;9.68;94.13;101451.00;5092955;28;20131;-55
2023/02/18 10:14:08;;;;;;;;;;;;;;;9.77;94.44;101451.06;5072654;28;20367;-55
2023/02/18 10:16:34;;;;;;;23.90;3.67;;;;;;;9.78;94.89;101450.09;5092733;28;19920;-55
2023/02/18 10:19:33;;;;;;;16.90;3.67;;;;;;;9.71;94.23;101451.56;5093386;28;20517;-55
2023/02/18 10:22:03;;;;;;;19.50;3.65;;;;;;;9.74;94.95;101448.69;5091691;28;20109;-55
2023/02/18 10:24:35;;;;;;;18.70;4.60;;;;;;;9.78;95.01;101441.31;5093637;28;20032;-56
2023/02/18 10:27:05;;;;;;;18.70;4.50;;;;;;;9.96;93.65;101452.97;5091947;28;20047;-53
2023/02/18 10:29:32;;;;;;;18.23;3.53;;;;;;;9.87;93.85;101453.75;5087945;28;20048;-54
2023/02/18 10:32:16;;;;;;;19.65;3.55;;;;;;;9.83;94.85;101464.78;5083034;28;20052;-54
2023/02/18 10:35:06;;;;;;;21.00;3.90;;;;;;;9.84;96.22;101463.78;5091531;28;20044;-54
2023/02/18 10:38:02;;;;;;;16.15;4.10;;;;;;;9.67;100.00;101473.19;5089726;28;20040;-54
2023/02/18 10:40:57;;;;;;;16.65;3.65;;;;;;;9.37;100.00;101457.09;5091293;28;20432;-54
2023/02/18 10:44:05;;;;;;;18.45;4.50;;;;;;;9.30;100.00;101484.22;5085475;28;20378;-54
2023/02/18 10:46:50;;;;;;;22.92;4.30;;;;;;;9.20;100.00;101489.44;5078004;28;20075;-55
2023/02/18 10:49:57;;;;;;;21.90;4.38;;;;;;;9.23;100.00;101497.97;5079586;28;20040;-55
2023/02/18 10:52:28;;;;;;;18.90;4.30;;;;;;;9.21;100.00;101502.53;5081679;28;20047;-55
2023/02/18 10:55:17;;;;;;;19.40;3.60;;;;;;;9.14;100.00;101506.66;5093469;28;20043;-55
2023/02/18 10:57:47;;;;;;;29.50;3.90;;;;;;;9.12;100.00;101502.47;5090828;28;20576;-57
2023/02/18 11:00:18;;;;;;;24.55;4.60;;;;;;;9.22;100.00;101503.38;5089363;28;20096;-55
2023/02/18 11:02:46;;;;;;;22.48;5.03;;;;;;;9.23;100.00;101499.78;5072439;28;20409;-58
2023/02/18 11:05:22;;;;;;;21.60;5.10;;;;;;;9.21;100.00;101496.41;5079944;28;20043;-56
2023/02/18 11:07:53;;;;;;;19.05;5.32;;;;;;;9.25;100.00;101495.19;5088843;28;20054;-56
2023/02/18 11:10:24;;;;;;;19.10;5.13;;;;;;;9.14;100.00;101500.53;5082941;28;20043;-59
2023/02/18 11:12:58;;;;;;;19.73;6.15;;;;;;;9.06;100.00;101493.22;5072917;28;20063;-56
2023/02/18 11:15:26;;;;;;;13.80;4.40;;;;;;;8.95;100.00;101514.41;5077371;28;20163;-55
2023/02/18 11:17:55;;;;;;;22.88;6.47;;;;;;;8.75;100.00;101494.84;5087278;28;20093;-55
2023/02/18 11:20:35;;;;;;;19.75;6.18;;;;;;;8.75;100.00;101505.44;5091390;28;20048;-55
2023/02/18 11:25:56;;;;;;;21.88;5.88;;;;;;;8.77;100.00;101498.25;5110613;27;20377;-54
2023/02/18 11:28:33;;;;;;;25.10;6.20;;;;;;;8.72;100.00;101505.72;5110945;28;20076;-54
2023/02/18 11:31:02;;;;;;;17.98;5.57;;;;;;;8.70;100.00;101495.25;5110880;28;20058;-54
2023/02/18 11:36:20;;;;;;;17.00;4.95;;;;;;;8.63;100.00;101504.63;5090537;27;20044;-56
2023/02/18 11:38:49;;;;;;;;;;;;;;;8.64;100.00;101508.94;5091085;28;20052;-54
2023/02/18 11:41:20;;;;;;;13.02;4.55;;;;;;;8.62;100.00;101498.50;5090561;28;19920;-54
2023/02/18 11:43:50;;;;;;;13.53;4.47;;;;;;;8.73;100.00;101496.78;5090703;28;20044;-56
2023/02/18 11:46:21;;;;;;;16.73;4.93;;;;;;;8.66;100.00;101501.75;5090160;28;20127;-55
2023/02/18 11:48:49;;;;;;;11.60;4.90;;;;;;;8.69;100.00;101493.56;5072294;28;20040;-55